Island Park, ID

7:23 PM MDT on August 30, 2015 (GMT -0600)
Yellowstone | | Change Station
CLOSE
Current Station
Airport
Location: West Yellowstone,
Elevation: 6644 ft
Nearby Weather Stations

Elev 6644 ft 44.69 °N, 111.12 °W | Updated 18 minutes ago

Partly Cloudy
Partly Cloudy
66 °F
Feels Like 66 °F
N
17
Wind Variable Wind from SW
Gusts 26 mph

Today
High -- | Low -- °F
--% Chance of Precip.
Yesterday
High -- | Low -- °F
Precip. -- in
6:45 AM 8:05 PM
Full, 98% visible
Pressure 30.04 in
Visibility 10.0 miles
Clouds Clear
Dew Point 16 °F
Humidity 14%
Rainfall 0.04 in
Snow Depth Not available.
UV 1 out of 12
Pollen 8.80 out of 12
Air Quality Not available.
Flu Activity Not available.
METAR KWYS 310105Z AUTO 23015G23KT 10SM CLR 19/M09 A3004 RMK AO2
Pressure 30.04 in
Visibility 10.0 miles
Clouds Clear
Dew Point 16 °F
Humidity 14%
Rainfall 0.04 in
Snow Depth Not available.
UV 1 out of 12
Pollen 8.80 out of 12
Air Quality Not available.
Flu Activity Not available.
METAR KWYS 310105Z AUTO 23015G23KT 10SM CLR 19/M09 A3004 RMK AO2

10-Day Weather Forecast

×

Almanac

Astronomy

Aug. 30, 2015 Rise Set
Actual Time
Civil Twilight
Nautical Twilight
Astronomical Twilight
Moon
Length of Visible Light
Length of Day
Tomorrow will be .
, % of the Moon is Illuminated

Today's Extremes

State Highs State Lows

Community

WunderPhotos

Upload Photos

1,851,130 photos uploaded!

WunderBlogs® & News

Nearby

Air Quality

  Air Quality AQ Index Pollutant
Not available.

Snow Depth

Station Depth Elevation

Earthquake Activity

City Distance Mag. Time & Date
Minimum magnitude displayed is 2.5.

Coastal Water Temperatures

Place Temperature

Stations

Nearby Weather Stations

Station Location Temp. Windchill Dew Point Humidity Wind Precip. Elev Updated Type